sensor_id;sensor_type;location;lat;lon;timestamp;temperature;humidity
18654;DHT22;9456;47.824;16.228;2023-03-01T00:01:12;-4.50;94.00
18654;DHT22;9456;47.824;16.228;2023-03-01T00:03:40;-4.50;94.20
18654;DHT22;9456;47.824;16.228;2023-03-01T00:06:10;-4.40;94.40
18654;DHT22;9456;47.824;16.228;2023-03-01T00:08:38;-4.40;94.50
18654;DHT22;9456;47.824;16.228;2023-03-01T00:11:08;-4.30;94.50
18654;DHT22;9456;47.824;16.228;2023-03-01T00:13:36;-4.30;94.30
18654;DHT22;9456;47.824;16.228;2023-03-01T00:16:07;-4.20;94.30
18654;DHT22;9456;47.824;16.228;2023-03-01T00:18:35;-4.20;94.50
18654;DHT22;9456;47.824;16.228;2023-03-01T00:21:04;-4.10;94.20
18654;DHT22;9456;47.824;16.228;2023-03-01T00:23:34;-4.10;94.10
18654;DHT22;9456;47.824;16.228;2023-03-01T00:26:05;-4.00;93.90
18654;DHT22;9456;47.824;16.228;2023-03-01T00:28:33;-3.90;93.70
18654;DHT22;9456;47.824;16.228;2023-03-01T00:31:05;-3.80;93.50
18654;DHT22;9456;47.824;16.228;2023-03-01T00:33:33;-3.70;93.40
18654;DHT22;9456;47.824;16.228;2023-03-01T00:36:05;-3.70;93.30
18654;DHT22;9456;47.824;16.228;2023-03-01T00:38:36;-3.60;93.20
18654;DHT22;9456;47.824;16.228;2023-03-01T00:41:06;-3.50;93.20
18654;DHT22;9456;47.824;16.228;2023-03-01T00:43:44;-3.30;93.10
18654;DHT22;9456;47.824;16.228;2023-03-01T00:46:15;-3.20;92.90
18654;DHT22;9456;47.824;16.228;2023-03-01T00:48:43;-3.10;92.60
18654;DHT22;9456;47.824;16.228;2023-03-01T00:51:13;-3.00;92.30
18654;DHT22;9456;47.824;16.228;2023-03-01T00:53:41;-2.90;92.20
18654;DHT22;9456;47.824;16.228;2023-03-01T00:56:10;-2.80;92.10
18654;DHT22;9456;47.824;16.228;2023-03-01T00:58:39;-2.70;91.90
18654;DHT22;9456;47.824;16.228;2023-03-01T01:01:11;-2.60;91.80
18654;DHT22;9456;47.824;16.228;2023-03-01T01:03:40;-2.60;91.50
18654;DHT22;9456;47.824;16.228;2023-03-01T01:06:13;-2.50;91.30
18654;DHT22;9456;47.824;16.228;2023-03-01T01:08:42;-2.40;91.20
18654;DHT22;9456;47.824;16.228;2023-03-01T01:11:11;-2.40;91.20
18654;DHT22;9456;47.824;16.228;2023-03-01T01:13:41;-2.40;91.20
18654;DHT22;9456;47.824;16.228;2023-03-01T01:16:09;-2.40;91.10
18654;DHT22;9456;47.824;16.228;2023-03-01T01:18:38;-2.40;91.20
18654;DHT22;9456;47.824;16.228;2023-03-01T01:21:09;-2.30;91.30
18654;DHT22;9456;47.824;16.228;2023-03-01T01:23:38;-2.30;91.40
18654;DHT22;9456;47.824;16.228;2023-03-01T01:26:07;-2.30;91.40
18654;DHT22;9456;47.824;16.228;2023-03-01T01:28:36;-2.20;91.40
18654;DHT22;9456;47.824;16.228;2023-03-01T01:31:05;-2.20;91.30
18654;DHT22;9456;47.824;16.228;2023-03-01T01:33:34;-2.20;91.20
18654;DHT22;9456;47.824;16.228;2023-03-01T01:36:04;-2.20;91.20
18654;DHT22;9456;47.824;16.228;2023-03-01T01:38:33;-2.30;91.20
18654;DHT22;9456;47.824;16.228;2023-03-01T01:41:02;-2.20;91.40
18654;DHT22;9456;47.824;16.228;2023-03-01T01:43:33;-2.20;91.50
18654;DHT22;9456;47.824;16.228;2023-03-01T01:46:10;-2.20;91.40
18654;DHT22;9456;47.824;16.228;2023-03-01T01:48:39;-2.10;91.40
18654;DHT22;9456;47.824;16.228;2023-03-01T01:51:11;-2.10;91.40
18654;DHT22;9456;47.824;16.228;2023-03-01T01:53:39;-2.10;91.50
18654;DHT22;9456;47.824;16.228;2023-03-01T01:56:08;-2.10;91.50
18654;DHT22;9456;47.824;16.228;2023-03-01T01:58:37;-2.10;91.60
18654;DHT22;9456;47.824;16.228;2023-03-01T02:01:07;-2.10;91.60
18654;DHT22;9456;47.824;16.228;2023-03-01T02:03:36;-1.90;91.60
18654;DHT22;9456;47.824;16.228;2023-03-01T02:06:07;-1.80;91.40
18654;DHT22;9456;47.824;16.228;2023-03-01T02:08:36;-1.80;91.30
18654;DHT22;9456;47.824;16.228;2023-03-01T02:11:05;-1.70;91.20
18654;DHT22;9456;47.824;16.228;2023-03-01T02:13:34;-1.70;91.00
18654;DHT22;9456;47.824;16.228;2023-03-01T02:16:05;-1.60;91.00
18654;DHT22;9456;47.824;16.228;2023-03-01T02:18:33;-1.60;90.70
18654;DHT22;9456;47.824;16.228;2023-03-01T02:21:11;-1.60;90.60
18654;DHT22;9456;47.824;16.228;2023-03-01T02:23:38;-1.60;90.60
18654;DHT22;9456;47.824;16.228;2023-03-01T02:26:09;-1.60;90.40
18654;DHT22;9456;47.824;16.228;2023-03-01T02:28:37;-1.60;90.60
18654;DHT22;9456;47.824;16.228;2023-03-01T02:31:07;-1.70;90.50
18654;DHT22;9456;47.824;16.228;2023-03-01T02:33:53;-1.70;90.70
18654;DHT22;9456;47.824;16.228;2023-03-01T02:36:23;-1.70;90.80
18654;DHT22;9456;47.824;16.228;2023-03-01T02:38:52;-1.70;90.80
18654;DHT22;9456;47.824;16.228;2023-03-01T02:41:21;-1.70;90.90
18654;DHT22;9456;47.824;16.228;2023-03-01T02:43:50;-1.70;90.90
18654;DHT22;9456;47.824;16.228;2023-03-01T02:46:21;-1.70;90.90
18654;DHT22;9456;47.824;16.228;2023-03-01T02:48:49;-1.70;91.30
18654;DHT22;9456;47.824;16.228;2023-03-01T02:54:17;-1.60;91.00
18654;DHT22;9456;47.824;16.228;2023-03-01T02:56:45;-1.60;90.90
18654;DHT22;9456;47.824;16.228;2023-03-01T02:59:15;-1.50;90.90
18654;DHT22;9456;47.824;16.228;2023-03-01T03:01:44;-1.50;90.80
18654;DHT22;9456;47.824;16.228;2023-03-01T03:04:14;-1.50;90.80
18654;DHT22;9456;47.824;16.228;2023-03-01T03:06:44;-1.50;90.80
18654;DHT22;9456;47.824;16.228;2023-03-01T03:09:13;-1.50;90.90
18654;DHT22;9456;47.824;16.228;2023-03-01T03:11:43;-1.50;90.90
18654;DHT22;9456;47.824;16.228;2023-03-01T03:14:13;-1.50;90.90
18654;DHT22;9456;47.824;16.228;2023-03-01T03:16:42;-1.50;90.90
18654;DHT22;9456;47.824;16.228;2023-03-01T03:19:11;-1.50;90.70
18654;DHT22;9456;47.824;16.228;2023-03-01T03:21:40;-1.40;90.90
18654;DHT22;9456;47.824;16.228;2023-03-01T03:24:09;-1.40;90.90
18654;DHT22;9456;47.824;16.228;2023-03-01T03:26:38;-1.40;90.90
18654;DHT22;9456;47.824;16.228;2023-03-01T03:29:07;-1.30;90.90
18654;DHT22;9456;47.824;16.228;2023-03-01T03:31:36;-1.30;90.60
18654;DHT22;9456;47.824;16.228;2023-03-01T03:34:05;-1.30;90.90
18654;DHT22;9456;47.824;16.228;2023-03-01T03:36:34;-1.30;90.70
18654;DHT22;9456;47.824;16.228;2023-03-01T03:39:03;-1.30;90.80
18654;DHT22;9456;47.824;16.228;2023-03-01T03:41:32;-1.30;90.80
18654;DHT22;9456;47.824;16.228;2023-03-01T03:44:01;-1.30;90.90
18654;DHT22;9456;47.824;16.228;2023-03-01T03:46:30;-1.30;90.90
18654;DHT22;9456;47.824;16.228;2023-03-01T03:49:10;-1.30;91.00
18654;DHT22;9456;47.824;16.228;2023-03-01T03:51:39;-1.20;91.10
18654;DHT22;9456;47.824;16.228;2023-03-01T03:54:08;-1.20;91.10
18654;DHT22;9456;47.824;16.228;2023-03-01T03:56:37;-1.20;91.10
18654;DHT22;9456;47.824;16.228;2023-03-01T03:59:06;-1.10;91.20
18654;DHT22;9456;47.824;16.228;2023-03-01T04:01:35;-1.10;91.10
18654;DHT22;9456;47.824;16.228;2023-03-01T04:04:05;-1.10;90.90
18654;DHT22;9456;47.824;16.228;2023-03-01T04:06:33;-1.10;90.90
18654;DHT22;9456;47.824;16.228;2023-03-01T04:09:02;-1.10;90.90
18654;DHT22;9456;47.824;16.228;2023-03-01T04:11:31;-1.10;90.90
18654;DHT22;9456;47.824;16.228;2023-03-01T04:14:00;-1.10;91.00
18654;DHT22;9456;47.824;16.228;2023-03-01T04:16:29;-1.10;91.00
18654;DHT22;9456;47.824;16.228;2023-03-01T04:18:59;-1.20;90.90
18654;DHT22;9456;47.824;16.228;2023-03-01T04:21:28;-1.20;91.40
18654;DHT22;9456;47.824;16.228;2023-03-01T04:23:57;-1.20;91.20
18654;DHT22;9456;47.824;16.228;2023-03-01T04:26:26;-1.20;91.20
18654;DHT22;9456;47.824;16.228;2023-03-01T04:28:55;-1.20;91.20
18654;DHT22;9456;47.824;16.228;2023-03-01T04:31:24;-1.20;91.20
18654;DHT22;9456;47.824;16.228;2023-03-01T04:33:54;-1.10;91.30
18654;DHT22;9456;47.824;16.228;2023-03-01T04:36:24;-1.10;91.20
18654;DHT22;9456;47.824;16.228;2023-03-01T04:38:53;-1.10;91.60
18654;DHT22;9456;47.824;16.228;2023-03-01T04:41:22;-1.10;91.10
18654;DHT22;9456;47.824;16.228;2023-03-01T04:43:51;-1.10;91.10
18654;DHT22;9456;47.824;16.228;2023-03-01T04:46:20;-1.10;91.20
18654;DHT22;9456;47.824;16.228;2023-03-01T04:48:49;-1.10;91.30
18654;DHT22;9456;47.824;16.228;2023-03-01T04:51:18;-1.10;91.50
18654;DHT22;9456;47.824;16.228;2023-03-01T04:53:47;-1.10;91.20
18654;DHT22;9456;47.824;16.228;2023-03-01T04:56:16;-1.00;91.20
18654;DHT22;9456;47.824;16.228;2023-03-01T04:58:44;-1.00;91.20
18654;DHT22;9456;47.824;16.228;2023-03-01T05:01:14;-0.90;91.00
18654;DHT22;9456;47.824;16.228;2023-03-01T05:03:45;-0.80;91.10
18654;DHT22;9456;47.824;16.228;2023-03-01T05:06:13;-0.70;91.00
18654;DHT22;9456;47.824;16.228;2023-03-01T05:08:42;-0.70;90.80
18654;DHT22;9456;47.824;16.228;2023-03-01T05:11:11;-0.60;90.80
18654;DHT22;9456;47.824;16.228;2023-03-01T05:13:40;-0.60;90.70
18654;DHT22;9456;47.824;16.228;2023-03-01T05:16:09;-0.60;90.60
18654;DHT22;9456;47.824;16.228;2023-03-01T05:18:39;-0.50;90.60
18654;DHT22;9456;47.824;16.228;2023-03-01T05:21:08;-0.50;90.60
18654;DHT22;9456;47.824;16.228;2023-03-01T05:23:37;-0.50;90.60
18654;DHT22;9456;47.824;16.228;2023-03-01T05:26:06;-0.50;90.90
18654;DHT22;9456;47.824;16.228;2023-03-01T05:28:35;-0.50;90.60
18654;DHT22;9456;47.824;16.228;2023-03-01T05:31:04;-0.50;90.60
18654;DHT22;9456;47.824;16.228;2023-03-01T05:33:34;-0.50;90.50
18654;DHT22;9456;47.824;16.228;2023-03-01T05:36:04;-0.50;90.60
18654;DHT22;9456;47.824;16.228;2023-03-01T05:38:33;-0.60;90.70
18654;DHT22;9456;47.824;16.228;2023-03-01T05:41:02;-0.50;90.80
18654;DHT22;9456;47.824;16.228;2023-03-01T05:43:32;-0.50;90.70
18654;DHT22;9456;47.824;16.228;2023-03-01T05:46:01;-0.50;90.70
18654;DHT22;9456;47.824;16.228;2023-03-01T05:48:30;-0.50;90.60
18654;DHT22;9456;47.824;16.228;2023-03-01T05:51:00;-0.50;90.70
18654;DHT22;9456;47.824;16.228;2023-03-01T05:53:29;-0.50;90.60
18654;DHT22;9456;47.824;16.228;2023-03-01T05:55:57;-0.40;90.60
18654;DHT22;9456;47.824;16.228;2023-03-01T05:58:27;-0.40;90.60
18654;DHT22;9456;47.824;16.228;2023-03-01T06:00:56;-0.40;90.40
18654;DHT22;9456;47.824;16.228;2023-03-01T06:03:25;-0.30;90.20
18654;DHT22;9456;47.824;16.228;2023-03-01T06:05:57;-0.30;90.10
18654;DHT22;9456;47.824;16.228;2023-03-01T06:08:26;-0.30;90.10
18654;DHT22;9456;47.824;16.228;2023-03-01T06:10:55;-0.30;90.10
18654;DHT22;9456;47.824;16.228;2023-03-01T06:13:24;-0.30;90.10
18654;DHT22;9456;47.824;16.228;2023-03-01T06:15:53;-0.20;89.90
18654;DHT22;9456;47.824;16.228;2023-03-01T06:18:22;-0.20;89.80
18654;DHT22;9456;47.824;16.228;2023-03-01T06:20:55;-0.20;89.80
18654;DHT22;9456;47.824;16.228;2023-03-01T06:23:23;-0.10;89.90
18654;DHT22;9456;47.824;16.228;2023-03-01T06:25:52;-0.10;90.30
18654;DHT22;9456;47.824;16.228;2023-03-01T06:28:22;-0.10;90.00
18654;DHT22;9456;47.824;16.228;2023-03-01T06:30:51;0.00;90.10
18654;DHT22;9456;47.824;16.228;2023-03-01T06:33:20;0.00;90.10
18654;DHT22;9456;47.824;16.228;2023-03-01T06:35:50;0.00;89.70
18654;DHT22;9456;47.824;16.228;2023-03-01T06:38:19;0.00;89.10
18654;DHT22;9456;47.824;16.228;2023-03-01T06:40:53;-0.10;88.70
18654;DHT22;9456;47.824;16.228;2023-03-01T06:43:22;-0.10;89.00
18654;DHT22;9456;47.824;16.228;2023-03-01T06:45:51;-0.10;88.70
18654;DHT22;9456;47.824;16.228;2023-03-01T06:48:20;0.00;88.30
18654;DHT22;9456;47.824;16.228;2023-03-01T06:53:32;0.00;87.80
18654;DHT22;9456;47.824;16.228;2023-03-01T06:56:02;0.10;88.10
18654;DHT22;9456;47.824;16.228;2023-03-01T06:58:30;0.10;87.80
18654;DHT22;9456;47.824;16.228;2023-03-01T07:01:00;0.20;87.40
18654;DHT22;9456;47.824;16.228;2023-03-01T07:03:29;0.20;87.10
18654;DHT22;9456;47.824;16.228;2023-03-01T07:05:58;0.30;86.80
18654;DHT22;9456;47.824;16.228;2023-03-01T07:08:27;0.40;86.50
18654;DHT22;9456;47.824;16.228;2023-03-01T07:10:58;0.50;85.80
18654;DHT22;9456;47.824;16.228;2023-03-01T07:13:27;0.60;84.60
18654;DHT22;9456;47.824;16.228;2023-03-01T07:15:56;0.70;83.60
18654;DHT22;9456;47.824;16.228;2023-03-01T07:18:25;0.70;82.60
18654;DHT22;9456;47.824;16.228;2023-03-01T07:20:55;0.80;82.70
18654;DHT22;9456;47.824;16.228;2023-03-01T07:23:24;0.80;82.00
18654;DHT22;9456;47.824;16.228;2023-03-01T07:25:53;0.90;81.60
18654;DHT22;9456;47.824;16.228;2023-03-01T07:28:23;0.90;80.30
18654;DHT22;9456;47.824;16.228;2023-03-01T07:30:52;1.00;79.40
18654;DHT22;9456;47.824;16.228;2023-03-01T07:33:21;1.10;78.10
18654;DHT22;9456;47.824;16.228;2023-03-01T07:35:56;1.20;77.90
18654;DHT22;9456;47.824;16.228;2023-03-01T07:38:25;1.30;77.10
18654;DHT22;9456;47.824;16.228;2023-03-01T07:40:57;1.40;76.80
18654;DHT22;9456;47.824;16.228;2023-03-01T07:43:23;1.40;76.40
18654;DHT22;9456;47.824;16.228;2023-03-01T07:45:52;1.40;76.50
18654;DHT22;9456;47.824;16.228;2023-03-01T07:48:21;1.40;76.30
18654;DHT22;9456;47.824;16.228;2023-03-01T07:50:50;1.40;75.80
18654;DHT22;9456;47.824;16.228;2023-03-01T07:53:23;1.50;74.80
18654;DHT22;9456;47.824;16.228;2023-03-01T07:56:00;1.60;74.80
18654;DHT22;9456;47.824;16.228;2023-03-01T07:58:29;1.70;73.20
18654;DHT22;9456;47.824;16.228;2023-03-01T08:01:01;1.80;72.60
18654;DHT22;9456;47.824;16.228;2023-03-01T08:03:31;1.80;71.00
18654;DHT22;9456;47.824;16.228;2023-03-01T08:06:01;1.90;71.00
18654;DHT22;9456;47.824;16.228;2023-03-01T08:08:30;2.00;71.30
18654;DHT22;9456;47.824;16.228;2023-03-01T08:11:02;2.10;70.90
18654;DHT22;9456;47.824;16.228;2023-03-01T08:13:30;2.20;70.40
18654;DHT22;9456;47.824;16.228;2023-03-01T08:16:04;2.30;69.90
18654;DHT22;9456;47.824;16.228;2023-03-01T08:18:32;2.30;69.40
18654;DHT22;9456;47.824;16.228;2023-03-01T08:21:04;2.40;68.80
18654;DHT22;9456;47.824;16.228;2023-03-01T08:23:33;2.50;68.50
18654;DHT22;9456;47.824;16.228;2023-03-01T08:26:07;2.50;68.30
18654;DHT22;9456;47.824;16.228;2023-03-01T08:28:36;2.50;67.60
18654;DHT22;9456;47.824;16.228;2023-03-01T08:33:53;2.60;67.60
18654;DHT22;9456;47.824;16.228;2023-03-01T08:36:23;2.70;67.20
18654;DHT22;9456;47.824;16.228;2023-03-01T08:38:52;2.80;67.20
18654;DHT22;9456;47.824;16.228;2023-03-01T08:41:21;2.80;66.80
18654;DHT22;9456;47.824;16.228;2023-03-01T08:43:50;2.80;67.50
18654;DHT22;9456;47.824;16.228;2023-03-01T08:46:19;2.80;67.60
18654;DHT22;9456;47.824;16.228;2023-03-01T08:48:50;2.80;67.70
18654;DHT22;9456;47.824;16.228;2023-03-01T08:51:20;2.80;67.60
18654;DHT22;9456;47.824;16.228;2023-03-01T08:56:30;3.10;68.00
18654;DHT22;9456;47.824;16.228;2023-03-01T08:59:00;3.20;66.20
18654;DHT22;9456;47.824;16.228;2023-03-01T09:01:29;3.30;65.30
18654;DHT22;9456;47.824;16.228;2023-03-01T09:03:58;3.50;65.00
18654;DHT22;9456;47.824;16.228;2023-03-01T09:06:27;3.60;63.90
18654;DHT22;9456;47.824;16.228;2023-03-01T09:08:56;3.70;62.70
18654;DHT22;9456;47.824;16.228;2023-03-01T09:11:25;4.00;62.30
18654;DHT22;9456;47.824;16.228;2023-03-01T09:13:54;4.20;61.60
18654;DHT22;9456;47.824;16.228;2023-03-01T09:16:23;4.40;60.00
18654;DHT22;9456;47.824;16.228;2023-03-01T09:18:52;4.60;59.30
18654;DHT22;9456;47.824;16.228;2023-03-01T09:21:22;4.80;59.30
18654;DHT22;9456;47.824;16.228;2023-03-01T09:23:49;4.80;58.80
18654;DHT22;9456;47.824;16.228;2023-03-01T09:26:20;5.00;58.60
18654;DHT22;9456;47.824;16.228;2023-03-01T09:28:53;5.40;57.80
18654;DHT22;9456;47.824;16.228;2023-03-01T09:31:22;6.00;56.40
18654;DHT22;9456;47.824;16.228;2023-03-01T09:33:52;6.40;55.40
18654;DHT22;9456;47.824;16.228;2023-03-01T09:36:21;7.40;53.50
18654;DHT22;9456;47.824;16.228;2023-03-01T09:38:50;8.20;51.20
18654;DHT22;9456;47.824;16.228;2023-03-01T09:41:42;9.00;50.10
18654;DHT22;9456;47.824;16.228;2023-03-01T09:44:12;10.00;46.10
18654;DHT22;9456;47.824;16.228;2023-03-01T09:46:41;10.60;43.70
18654;DHT22;9456;47.824;16.228;2023-03-01T09:49:12;11.60;42.40
18654;DHT22;9456;47.824;16.228;2023-03-01T09:51:41;12.60;41.40
18654;DHT22;9456;47.824;16.228;2023-03-01T09:54:10;13.00;38.20
18654;DHT22;9456;47.824;16.228;2023-03-01T09:56:40;12.80;37.40
18654;DHT22;9456;47.824;16.228;2023-03-01T09:59:14;12.70;37.40
18654;DHT22;9456;47.824;16.228;2023-03-01T10:01:45;12.30;37.30
18654;DHT22;9456;47.824;16.228;2023-03-01T10:04:39;11.40;38.00
18654;DHT22;9456;47.824;16.228;2023-03-01T10:07:17;10.50;40.70
18654;DHT22;9456;47.824;16.228;2023-03-01T10:09:44;9.80;42.70
18654;DHT22;9456;47.824;16.228;2023-03-01T10:12:15;9.20;44.80
18654;DHT22;9456;47.824;16.228;2023-03-01T10:14:47;8.70;46.00
18654;DHT22;9456;47.824;16.228;2023-03-01T10:17:16;8.30;46.90
18654;DHT22;9456;47.824;16.228;2023-03-01T10:19:44;8.20;47.80
18654;DHT22;9456;47.824;16.228;2023-03-01T10:22:15;8.10;47.60
18654;DHT22;9456;47.824;16.228;2023-03-01T10:24:43;8.10;48.10
18654;DHT22;9456;47.824;16.228;2023-03-01T10:27:13;8.30;48.50
18654;DHT22;9456;47.824;16.228;2023-03-01T10:29:44;8.40;48.50
18654;DHT22;9456;47.824;16.228;2023-03-01T10:32:11;8.60;48.10
18654;DHT22;9456;47.824;16.228;2023-03-01T10:34:40;8.70;48.40
18654;DHT22;9456;47.824;16.228;2023-03-01T10:37:13;8.60;48.30
18654;DHT22;9456;47.824;16.228;2023-03-01T10:39:56;8.50;48.70
18654;DHT22;9456;47.824;16.228;2023-03-01T10:42:28;8.70;48.80
18654;DHT22;9456;47.824;16.228;2023-03-01T10:44:56;9.00;48.10
18654;DHT22;9456;47.824;16.228;2023-03-01T10:47:26;9.20;47.50
18654;DHT22;9456;47.824;16.228;2023-03-01T10:50:19;9.10;47.40
18654;DHT22;9456;47.824;16.228;2023-03-01T10:52:58;9.30;47.70
18654;DHT22;9456;47.824;16.228;2023-03-01T10:55:31;9.30;47.10
18654;DHT22;9456;47.824;16.228;2023-03-01T10:58:16;9.30;48.00
18654;DHT22;9456;47.824;16.228;2023-03-01T11:00:48;9.20;47.70
18654;DHT22;9456;47.824;16.228;2023-03-01T11:03:18;9.10;48.30
18654;DHT22;9456;47.824;16.228;2023-03-01T11:05:55;8.90;48.40
18654;DHT22;9456;47.824;16.228;2023-03-01T11:08:34;8.90;48.90
18654;DHT22;9456;47.824;16.228;2023-03-01T11:11:07;9.00;49.20
18654;DHT22;9456;47.824;16.228;2023-03-01T11:13:35;8.90;49.00
18654;DHT22;9456;47.824;16.228;2023-03-01T11:16:05;8.80;49.80
18654;DHT22;9456;47.824;16.228;2023-03-01T11:18:34;8.90;49.90
18654;DHT22;9456;47.824;16.228;2023-03-01T11:21:03;8.80;50.40
18654;DHT22;9456;47.824;16.228;2023-03-01T11:23:32;8.60;49.90
18654;DHT22;9456;47.824;16.228;2023-03-01T11:26:01;8.70;50.30
18654;DHT22;9456;47.824;16.228;2023-03-01T11:28:30;8.80;50.30
18654;DHT22;9456;47.824;16.228;2023-03-01T11:31:00;8.80;50.40
18654;DHT22;9456;47.824;16.228;2023-03-01T11:33:33;8.70;50.70
18654;DHT22;9456;47.824;16.228;2023-03-01T11:36:02;8.60;50.20
18654;DHT22;9456;47.824;16.228;2023-03-01T11:38:32;8.90;50.40
18654;DHT22;9456;47.824;16.228;2023-03-01T11:41:01;8.90;49.90
18654;DHT22;9456;47.824;16.228;2023-03-01T11:43:33;8.40;50.80
18654;DHT22;9456;47.824;16.228;2023-03-01T11:46:38;8.50;50.90
18654;DHT22;9456;47.824;16.228;2023-03-01T11:49:16;8.80;50.80
18654;DHT22;9456;47.824;16.228;2023-03-01T11:51:46;8.90;49.80
18654;DHT22;9456;47.824;16.228;2023-03-01T11:54:20;9.00;50.20
18654;DHT22;9456;47.824;16.228;2023-03-01T11:56:55;9.10;50.20
18654;DHT22;9456;47.824;16.228;2023-03-01T12:00:03;9.20;49.70
18654;DHT22;9456;47.824;16.228;2023-03-01T12:03:01;9.10;49.50
18654;DHT22;9456;47.824;16.228;2023-03-01T12:05:49;9.20;49.80
18654;DHT22;9456;47.824;16.228;2023-03-01T12:08:19;8.70;50.80
18654;DHT22;9456;47.824;16.228;2023-03-01T12:10:51;8.20;51.60
18654;DHT22;9456;47.824;16.228;2023-03-01T12:13:35;8.10;52.30
18654;DHT22;9456;47.824;16.228;2023-03-01T12:16:15;8.20;52.30
18654;DHT22;9456;47.824;16.228;2023-03-01T12:19:10;8.40;52.10
18654;DHT22;9456;47.824;16.228;2023-03-01T12:21:45;8.40;52.50
18654;DHT22;9456;47.824;16.228;2023-03-01T12:27:17;8.30;52.90
18654;DHT22;9456;47.824;16.228;2023-03-01T12:29:45;8.40;52.70
18654;DHT22;9456;47.824;16.228;2023-03-01T12:32:23;8.60;52.70
18654;DHT22;9456;47.824;16.228;2023-03-01T12:35:13;8.50;52.20
18654;DHT22;9456;47.824;16.228;2023-03-01T12:37:49;8.20;53.10
18654;DHT22;9456;47.824;16.228;2023-03-01T12:40:25;8.40;53.20
18654;DHT22;9456;47.824;16.228;2023-03-01T12:42:57;8.50;53.00
18654;DHT22;9456;47.824;16.228;2023-03-01T12:48:34;8.70;52.30
18654;DHT22;9456;47.824;16.228;2023-03-01T12:51:03;8.50;52.80
18654;DHT22;9456;47.824;16.228;2023-03-01T12:53:32;8.60;53.10
18654;DHT22;9456;47.824;16.228;2023-03-01T12:56:01;8.50;53.20
18654;DHT22;9456;47.824;16.228;2023-03-01T12:58:32;8.50;52.90
18654;DHT22;9456;47.824;16.228;2023-03-01T13:01:08;8.50;53.20
18654;DHT22;9456;47.824;16.228;2023-03-01T13:03:42;8.60;53.00
18654;DHT22;9456;47.824;16.228;2023-03-01T13:06:10;8.50;53.20
18654;DHT22;9456;47.824;16.228;2023-03-01T13:08:41;8.20;53.70
18654;DHT22;9456;47.824;16.228;2023-03-01T13:11:14;8.20;54.20
18654;DHT22;9456;47.824;16.228;2023-03-01T13:13:42;8.30;54.10
18654;DHT22;9456;47.824;16.228;2023-03-01T13:16:40;8.10;54.80
18654;DHT22;9456;47.824;16.228;2023-03-01T13:19:11;8.10;54.50
18654;DHT22;9456;47.824;16.228;2023-03-01T13:21:39;8.30;54.60
18654;DHT22;9456;47.824;16.228;2023-03-01T13:24:25;8.50;54.30
18654;DHT22;9456;47.824;16.228;2023-03-01T13:27:20;8.60;54.20
18654;DHT22;9456;47.824;16.228;2023-03-01T13:29:47;8.50;54.50
18654;DHT22;9456;47.824;16.228;2023-03-01T13:32:24;8.30;54.80
18654;DHT22;9456;47.824;16.228;2023-03-01T13:34:59;8.20;55.50
18654;DHT22;9456;47.824;16.228;2023-03-01T13:37:36;8.30;55.20
18654;DHT22;9456;47.824;16.228;2023-03-01T13:42:47;8.30;55.30
18654;DHT22;9456;47.824;16.228;2023-03-01T13:45:21;8.10;55.20
18654;DHT22;9456;47.824;16.228;2023-03-01T13:47:52;8.00;55.90
18654;DHT22;9456;47.824;16.228;2023-03-01T13:50:21;7.90;56.30
18654;DHT22;9456;47.824;16.228;2023-03-01T13:52:52;7.90;56.50
18654;DHT22;9456;47.824;16.228;2023-03-01T13:55:22;7.90;56.40
18654;DHT22;9456;47.824;16.228;2023-03-01T13:57:51;7.80;56.60
18654;DHT22;9456;47.824;16.228;2023-03-01T14:03:05;7.60;57.30
18654;DHT22;9456;47.824;16.228;2023-03-01T14:05:34;7.60;57.30
18654;DHT22;9456;47.824;16.228;2023-03-01T14:08:05;7.50;57.40
18654;DHT22;9456;47.824;16.228;2023-03-01T14:10:37;7.40;58.20
18654;DHT22;9456;47.824;16.228;2023-03-01T14:13:08;7.40;58.30
18654;DHT22;9456;47.824;16.228;2023-03-01T14:15:39;7.40;58.20
18654;DHT22;9456;47.824;16.228;2023-03-01T14:18:08;7.40;58.40
18654;DHT22;9456;47.824;16.228;2023-03-01T14:20:40;7.30;58.70
18654;DHT22;9456;47.824;16.228;2023-03-01T14:23:11;7.20;59.10
18654;DHT22;9456;47.824;16.228;2023-03-01T14:25:45;7.20;59.20
18654;DHT22;9456;47.824;16.228;2023-03-01T14:28:15;7.10;59.30
18654;DHT22;9456;47.824;16.228;2023-03-01T14:30:44;7.10;59.50
18654;DHT22;9456;47.824;16.228;2023-03-01T14:33:21;6.90;59.90
18654;DHT22;9456;47.824;16.228;2023-03-01T14:35:57;6.80;60.20
18654;DHT22;9456;47.824;16.228;2023-03-01T14:38:30;6.70;60.70
18654;DHT22;9456;47.824;16.228;2023-03-01T14:40:59;6.50;61.40
18654;DHT22;9456;47.824;16.228;2023-03-01T14:43:27;6.50;62.00
18654;DHT22;9456;47.824;16.228;2023-03-01T14:45:56;6.40;62.40
18654;DHT22;9456;47.824;16.228;2023-03-01T14:48:26;6.40;62.70
18654;DHT22;9456;47.824;16.228;2023-03-01T14:50:54;6.40;63.00
18654;DHT22;9456;47.824;16.228;2023-03-01T14:53:24;6.40;63.00
18654;DHT22;9456;47.824;16.228;2023-03-01T14:55:53;6.40;63.40
18654;DHT22;9456;47.824;16.228;2023-03-01T14:58:23;6.40;63.90
18654;DHT22;9456;47.824;16.228;2023-03-01T15:00:52;6.40;64.50
18654;DHT22;9456;47.824;16.228;2023-03-01T15:03:25;6.40;64.60
18654;DHT22;9456;47.824;16.228;2023-03-01T15:05:53;6.30;65.20
18654;DHT22;9456;47.824;16.228;2023-03-01T15:08:22;6.30;65.70
18654;DHT22;9456;47.824;16.228;2023-03-01T15:11:02;6.20;66.50
18654;DHT22;9456;47.824;16.228;2023-03-01T15:13:32;6.20;66.90
18654;DHT22;9456;47.824;16.228;2023-03-01T15:16:06;6.30;67.10
18654;DHT22;9456;47.824;16.228;2023-03-01T15:18:35;6.30;67.10
18654;DHT22;9456;47.824;16.228;2023-03-01T15:21:15;6.20;66.40
18654;DHT22;9456;47.824;16.228;2023-03-01T15:23:47;6.20;66.70
18654;DHT22;9456;47.824;16.228;2023-03-01T15:26:22;6.20;66.70
18654;DHT22;9456;47.824;16.228;2023-03-01T15:28:52;6.20;66.90
18654;DHT22;9456;47.824;16.228;2023-03-01T15:31:21;6.20;66.50
18654;DHT22;9456;47.824;16.228;2023-03-01T15:33:49;6.20;66.30
18654;DHT22;9456;47.824;16.228;2023-03-01T15:36:41;6.10;66.60
18654;DHT22;9456;47.824;16.228;2023-03-01T15:39:38;6.10;66.80
18654;DHT22;9456;47.824;16.228;2023-03-01T15:42:08;6.10;66.60
18654;DHT22;9456;47.824;16.228;2023-03-01T15:44:36;6.00;67.00
18654;DHT22;9456;47.824;16.228;2023-03-01T15:47:07;6.00;66.60
18654;DHT22;9456;47.824;16.228;2023-03-01T15:49:37;6.00;66.80
18654;DHT22;9456;47.824;16.228;2023-03-01T15:52:09;5.90;67.20
18654;DHT22;9456;47.824;16.228;2023-03-01T15:54:35;5.90;67.30
18654;DHT22;9456;47.824;16.228;2023-03-01T15:57:04;5.90;67.70
18654;DHT22;9456;47.824;16.228;2023-03-01T15:59:33;5.90;68.30
18654;DHT22;9456;47.824;16.228;2023-03-01T16:02:10;5.90;68.50
18654;DHT22;9456;47.824;16.228;2023-03-01T16:04:39;5.90;68.60
18654;DHT22;9456;47.824;16.228;2023-03-01T16:07:09;5.80;69.00
18654;DHT22;9456;47.824;16.228;2023-03-01T16:09:38;5.80;69.60
18654;DHT22;9456;47.824;16.228;2023-03-01T16:12:09;5.80;70.20
18654;DHT22;9456;47.824;16.228;2023-03-01T16:14:38;5.80;70.70
18654;DHT22;9456;47.824;16.228;2023-03-01T16:17:07;5.80;71.20
18654;DHT22;9456;47.824;16.228;2023-03-01T16:19:36;5.70;71.50
18654;DHT22;9456;47.824;16.228;2023-03-01T16:22:06;5.70;71.80
18654;DHT22;9456;47.824;16.228;2023-03-01T16:24:35;5.70;72.30
18654;DHT22;9456;47.824;16.228;2023-03-01T16:27:04;5.60;72.80